createdAt,value
2022-10-17T00:00:53.666Z,23.30
2022-10-17T00:03:23.202Z,23.30
2022-10-17T00:05:49.836Z,23.30
2022-10-17T00:08:19.719Z,23.30
2022-10-17T00:10:49.533Z,23.30
2022-10-17T00:13:16.405Z,23.30
2022-10-17T00:15:46.143Z,23.30
2022-10-17T00:18:12.713Z,23.30
2022-10-17T00:20:44.932Z,23.20
2022-10-17T00:23:11.493Z,23.30
2022-10-17T00:25:38.092Z,23.30
2022-10-17T00:28:04.738Z,23.30
2022-10-17T00:30:34.180Z,23.20
2022-10-17T00:33:00.775Z,23.20
2022-10-17T00:35:27.390Z,23.20
2022-10-17T00:37:53.955Z,23.20
2022-10-17T00:40:23.865Z,23.20
2022-10-17T00:42:56.629Z,23.20
2022-10-17T00:45:24.065Z,23.20
2022-10-17T00:48:00.984Z,23.20
2022-10-17T00:50:27.637Z,23.20
2022-10-17T00:53:01.655Z,23.20
2022-10-17T00:55:29.562Z,23.20
2022-10-17T00:57:59.146Z,23.10
2022-10-17T01:00:25.715Z,23.20
2022-10-17T01:02:52.280Z,23.20
2022-10-17T01:05:18.943Z,23.40
2022-10-17T01:07:45.747Z,23.50
2022-10-17T01:10:12.400Z,23.70
2022-10-17T01:12:54.955Z,23.80
2022-10-17T01:15:24.276Z,23.90
2022-10-17T01:17:57.002Z,23.90
2022-10-17T01:20:43.949Z,23.90
2022-10-17T01:23:10.513Z,23.80
2022-10-17T01:26:12.582Z,23.70
2022-10-17T01:28:39.272Z,23.70
2022-10-17T01:31:14.026Z,23.60
2022-10-17T01:33:48.729Z,23.60
2022-10-17T01:36:17.964Z,23.50
2022-10-17T01:38:46.414Z,23.50
2022-10-17T01:41:16.191Z,23.40
2022-10-17T01:43:53.985Z,23.40
2022-10-17T01:46:22.750Z,23.40
2022-10-17T01:48:49.391Z,23.30
2022-10-17T01:51:19.407Z,23.30
2022-10-17T01:53:57.158Z,23.30
2022-10-17T01:56:24.293Z,23.30
2022-10-17T01:58:54.292Z,23.30
2022-10-17T02:01:23.894Z,23.30
2022-10-17T02:03:50.848Z,23.20
2022-10-17T02:06:17.434Z,23.30
2022-10-17T02:08:50.111Z,23.20
2022-10-17T02:11:20.639Z,23.20
2022-10-17T02:13:53.480Z,23.20
2022-10-17T02:16:46.486Z,23.20
2022-10-17T02:19:25.313Z,23.20
2022-10-17T02:22:04.369Z,23.00
2022-10-17T02:24:40.088Z,23.20
2022-10-17T02:27:08.580Z,23.20
2022-10-17T02:29:36.876Z,23.20
2022-10-17T02:32:10.905Z,23.10
2022-10-17T02:34:41.753Z,23.20
2022-10-17T02:37:08.625Z,23.10
2022-10-17T02:39:35.239Z,23.10
2022-10-17T02:42:02.927Z,23.10
2022-10-17T02:44:29.498Z,23.20
2022-10-17T02:46:59.519Z,23.30
2022-10-17T02:49:27.945Z,23.40
2022-10-17T02:51:57.304Z,23.60
2022-10-17T02:54:37.573Z,23.70
2022-10-17T02:57:07.706Z,23.80
2022-10-17T03:02:03.093Z,23.90
2022-10-17T03:04:29.637Z,23.80
2022-10-17T03:06:56.189Z,23.80
2022-10-17T03:09:22.746Z,23.70
2022-10-17T03:11:49.377Z,23.70
2022-10-17T03:14:15.971Z,23.60
2022-10-17T03:16:42.657Z,23.50
2022-10-17T03:19:09.323Z,23.40
2022-10-17T03:21:37.726Z,23.40
2022-10-17T03:24:04.528Z,23.40
2022-10-17T03:26:31.102Z,23.40
2022-10-17T03:28:57.698Z,23.30
2022-10-17T03:31:24.289Z,23.30
2022-10-17T03:33:50.911Z,23.30
2022-10-17T03:36:17.800Z,23.30
2022-10-17T03:38:44.440Z,23.30
2022-10-17T03:41:11.079Z,23.30
2022-10-17T03:43:37.736Z,23.20
2022-10-17T03:46:04.372Z,23.20
2022-10-17T03:48:30.941Z,23.20
2022-10-17T03:51:04.504Z,23.20
2022-10-17T03:53:31.085Z,23.20
2022-10-17T03:55:57.787Z,23.20
2022-10-17T03:58:24.392Z,23.20
2022-10-17T04:00:51.048Z,23.20
2022-10-17T04:03:17.683Z,23.20
2022-10-17T04:05:44.274Z,23.20
2022-10-17T04:08:10.894Z,23.20
2022-10-17T04:10:37.635Z,23.20
2022-10-17T04:13:04.582Z,23.10
2022-10-17T04:15:31.161Z,23.10
2022-10-17T04:17:57.760Z,23.10
2022-10-17T04:20:24.364Z,23.10
2022-10-17T04:22:50.916Z,23.10
2022-10-17T04:25:17.500Z,23.10
2022-10-17T04:27:44.086Z,23.10
2022-10-17T04:30:10.922Z,23.10
2022-10-17T04:32:38.671Z,23.10
2022-10-17T04:35:05.501Z,23.20
2022-10-17T04:37:32.538Z,23.30
2022-10-17T04:40:00.192Z,23.40
2022-10-17T04:42:28.796Z,23.60
2022-10-17T04:44:55.529Z,23.70
2022-10-17T04:47:22.123Z,23.80
2022-10-17T04:49:48.716Z,23.90
2022-10-17T04:52:15.313Z,23.80
2022-10-17T04:54:41.881Z,23.80
2022-10-17T04:57:08.434Z,23.70
2022-10-17T04:59:35.002Z,23.60
2022-10-17T05:02:01.601Z,23.50
2022-10-17T05:04:28.177Z,23.50
2022-10-17T05:06:54.740Z,23.50
2022-10-17T05:09:21.335Z,23.40
2022-10-17T05:11:47.965Z,23.40
2022-10-17T05:14:15.055Z,23.40
2022-10-17T05:16:41.622Z,23.30
2022-10-17T05:19:08.241Z,23.30
2022-10-17T05:21:37.157Z,23.30
2022-10-17T05:24:07.391Z,23.30
2022-10-17T05:26:33.984Z,23.30
2022-10-17T05:29:02.862Z,23.20
2022-10-17T05:31:29.835Z,23.20
2022-10-17T05:33:56.474Z,23.20
2022-10-17T05:36:23.121Z,23.20
2022-10-17T05:38:51.109Z,23.20
2022-10-17T05:41:17.801Z,23.20
2022-10-17T05:43:44.453Z,23.20
2022-10-17T05:46:11.084Z,23.20
2022-10-17T05:48:37.753Z,23.10
2022-10-17T05:51:05.649Z,23.10
2022-10-17T05:53:33.282Z,23.20
2022-10-17T05:56:00.673Z,23.10
2022-10-17T06:01:13.911Z,23.10
2022-10-17T06:03:40.519Z,23.10
2022-10-17T06:06:08.146Z,23.10
2022-10-17T06:08:44.966Z,23.10
2022-10-17T06:11:12.050Z,23.10
2022-10-17T06:13:38.913Z,23.10
2022-10-17T06:16:05.798Z,23.10
2022-10-17T06:18:32.406Z,23.10
2022-10-17T06:21:02.850Z,23.10
2022-10-17T06:23:29.417Z,23.10
2022-10-17T06:25:59.746Z,23.10
2022-10-17T06:28:26.486Z,23.30
2022-10-17T06:30:53.122Z,23.50
2022-10-17T06:33:20.803Z,23.60
2022-10-17T06:35:53.776Z,23.70
2022-10-17T06:38:20.390Z,23.90
2022-10-17T06:40:46.956Z,23.80
2022-10-17T06:43:13.713Z,23.80
2022-10-17T06:45:40.334Z,23.80
2022-10-17T06:48:08.816Z,23.70
2022-10-17T06:50:35.386Z,23.60
2022-10-17T06:53:01.989Z,23.60
2022-10-17T06:55:28.542Z,23.50
2022-10-17T06:57:56.416Z,23.50
2022-10-17T07:00:23.537Z,23.40
2022-10-17T07:02:50.279Z,23.40
2022-10-17T07:05:17.289Z,23.30
2022-10-17T07:07:45.529Z,23.30
2022-10-17T07:10:13.958Z,23.30
2022-10-17T07:12:40.589Z,23.30
2022-10-17T07:15:07.365Z,23.30
2022-10-17T07:17:33.917Z,23.30
2022-10-17T07:20:00.497Z,23.20
2022-10-17T07:22:27.105Z,23.20
2022-10-17T07:24:53.663Z,23.20
2022-10-17T07:27:20.238Z,23.20
2022-10-17T07:29:46.818Z,23.20
2022-10-17T07:32:13.428Z,23.20
2022-10-17T07:34:40.041Z,23.20
2022-10-17T07:37:07.415Z,23.20
2022-10-17T07:39:35.647Z,23.20
2022-10-17T07:42:02.289Z,23.10
2022-10-17T07:44:29.081Z,23.20
2022-10-17T07:46:55.715Z,23.10
2022-10-17T07:49:22.320Z,23.10
2022-10-17T07:51:49.599Z,23.10
2022-10-17T07:54:16.529Z,23.20
2022-10-17T07:56:43.310Z,23.10
2022-10-17T07:59:10.089Z,23.10
2022-10-17T08:01:37.050Z,23.10
2022-10-17T08:04:03.731Z,23.10
2022-10-17T08:06:30.391Z,23.10
2022-10-17T08:08:58.003Z,23.10
2022-10-17T08:11:25.438Z,23.10
2022-10-17T08:13:52.058Z,23.10
2022-10-17T08:16:18.787Z,23.20
2022-10-17T08:18:45.593Z,23.30
2022-10-17T08:21:13.288Z,23.50
2022-10-17T08:23:39.999Z,23.60
2022-10-17T08:26:08.189Z,23.70
2022-10-17T08:28:35.347Z,23.80
2022-10-17T08:31:12.205Z,23.80
2022-10-17T08:33:38.839Z,23.80
2022-10-17T08:36:05.594Z,23.80
2022-10-17T08:38:35.382Z,23.70
2022-10-17T08:41:07.189Z,23.70
2022-10-17T08:43:48.939Z,23.60
2022-10-17T08:48:45.639Z,23.50
2022-10-17T08:51:23.017Z,23.50
2022-10-17T08:53:49.566Z,23.40
2022-10-17T08:56:19.824Z,23.40
2022-10-17T08:58:51.198Z,23.40
2022-10-17T09:01:17.726Z,23.40
2022-10-17T09:03:53.759Z,23.30
2022-10-17T09:06:29.870Z,23.30
2022-10-17T09:09:05.537Z,23.30
2022-10-17T09:11:35.153Z,23.30
2022-10-17T09:14:15.754Z,23.30
2022-10-17T09:16:49.955Z,23.30
2022-10-17T09:19:20.757Z,23.20
2022-10-17T09:21:49.778Z,23.20
2022-10-17T09:24:18.301Z,23.20
2022-10-17T09:26:45.763Z,23.20
2022-10-17T09:29:17.922Z,23.20
2022-10-17T09:31:45.822Z,23.20
2022-10-17T09:34:12.417Z,23.20
2022-10-17T09:36:39.566Z,23.20
2022-10-17T09:39:10.426Z,23.20
2022-10-17T09:41:46.915Z,23.20
2022-10-17T09:44:21.967Z,23.20
2022-10-17T09:47:00.748Z,23.20
2022-10-17T09:49:34.541Z,23.10
2022-10-17T09:52:01.801Z,23.20
2022-10-17T09:54:36.423Z,23.30
2022-10-17T09:57:04.514Z,23.50
2022-10-17T09:59:38.239Z,23.60
2022-10-17T10:02:18.746Z,23.80
2022-10-17T10:05:09.606Z,23.90
2022-10-17T10:07:37.372Z,24.00
2022-10-17T10:10:04.842Z,24.00
2022-10-17T10:12:32.868Z,23.90
2022-10-17T10:14:59.623Z,23.90
2022-10-17T10:17:39.513Z,23.80
2022-10-17T10:20:24.493Z,23.80
2022-10-17T10:23:10.088Z,23.70
2022-10-17T10:25:36.847Z,23.70
2022-10-17T10:28:09.127Z,23.60
2022-10-17T10:30:39.054Z,23.60
2022-10-17T10:33:06.650Z,23.50
2022-10-17T10:35:36.512Z,23.50
2022-10-17T10:38:04.073Z,23.50
2022-10-17T10:40:31.646Z,23.40
2022-10-17T10:43:04.063Z,23.40
2022-10-17T10:45:53.364Z,23.40
2022-10-17T10:48:23.980Z,23.40
2022-10-17T10:50:52.556Z,23.40
2022-10-17T10:53:35.583Z,23.40
2022-10-17T10:56:02.308Z,23.40
2022-10-17T10:58:28.850Z,23.40
2022-10-17T11:00:55.646Z,23.30
2022-10-17T11:03:24.593Z,23.40
2022-10-17T11:06:14.437Z,23.40
2022-10-17T11:08:43.476Z,23.50
2022-10-17T11:11:17.866Z,23.70
2022-10-17T11:13:53.362Z,23.80
2022-10-17T11:16:23.494Z,24.00
2022-10-17T11:18:55.274Z,24.10
2022-10-17T11:21:26.552Z,24.10
2022-10-17T11:23:53.099Z,24.00
2022-10-17T11:26:25.991Z,24.00
2022-10-17T11:28:55.284Z,24.10
2022-10-17T11:31:22.244Z,23.90
2022-10-17T11:33:51.847Z,23.80
2022-10-17T11:36:19.626Z,23.80
2022-10-17T11:38:48.003Z,23.70
2022-10-17T11:41:17.322Z,23.70
2022-10-17T11:43:50.148Z,23.70
2022-10-17T11:46:16.703Z,23.60
2022-10-17T11:49:02.254Z,23.60
2022-10-17T11:54:15.770Z,23.60
2022-10-17T11:56:45.198Z,23.50
2022-10-17T11:59:28.525Z,23.50
2022-10-17T12:01:56.959Z,23.50
2022-10-17T12:04:26.711Z,23.50
2022-10-17T12:07:00.116Z,23.50
2022-10-17T12:09:46.105Z,23.40
2022-10-17T12:12:23.393Z,23.40
2022-10-17T12:14:49.944Z,23.50
2022-10-17T12:17:25.661Z,23.50
2022-10-17T12:19:52.357Z,23.70
2022-10-17T12:22:25.976Z,23.90
2022-10-17T12:24:54.296Z,24.00
2022-10-17T12:27:37.483Z,24.10
2022-10-17T12:30:15.014Z,24.10
2022-10-17T12:33:07.077Z,24.10
2022-10-17T12:35:35.203Z,24.00
2022-10-17T12:38:22.035Z,24.00
2022-10-17T12:40:52.610Z,23.90
2022-10-17T12:43:28.566Z,23.80
2022-10-17T12:45:55.608Z,23.80
2022-10-17T12:48:34.281Z,23.80
2022-10-17T12:51:17.558Z,23.70
2022-10-17T12:54:06.457Z,23.70
2022-10-17T12:56:43.009Z,23.70
2022-10-17T12:59:25.498Z,23.60
2022-10-17T13:01:53.611Z,23.60
2022-10-17T13:04:20.198Z,23.60
2022-10-17T13:06:48.210Z,23.60
2022-10-17T13:09:20.821Z,23.60
2022-10-17T13:11:47.375Z,23.60
2022-10-17T13:14:14.693Z,23.50
2022-10-17T13:16:51.335Z,23.50
2022-10-17T13:19:26.021Z,23.50
2022-10-17T13:21:56.033Z,23.50
2022-10-17T13:24:32.359Z,23.60
2022-10-17T13:26:59.187Z,23.70
2022-10-17T13:29:25.985Z,23.80
2022-10-17T13:31:54.305Z,24.00
2022-10-17T13:34:21.986Z,24.10
2022-10-17T13:36:49.208Z,24.20
2022-10-17T13:39:23.117Z,24.10
2022-10-17T13:41:58.906Z,24.10
2022-10-17T13:44:28.766Z,24.00
2022-10-17T13:46:55.358Z,24.00
2022-10-17T13:49:26.194Z,24.00
2022-10-17T13:51:54.720Z,23.90
2022-10-17T13:54:36.373Z,23.90
2022-10-17T13:57:03.354Z,23.80
2022-10-17T13:59:32.664Z,23.80
2022-10-17T14:02:01.594Z,23.80
2022-10-17T14:04:28.408Z,23.70
2022-10-17T14:06:54.952Z,23.70
2022-10-17T14:09:25.576Z,23.60
2022-10-17T14:11:58.223Z,23.60
2022-10-17T14:14:25.760Z,23.50
2022-10-17T14:16:55.435Z,23.60
2022-10-17T14:19:24.879Z,23.50
2022-10-17T14:22:10.645Z,23.50
2022-10-17T14:24:38.615Z,23.50
2022-10-17T14:27:24.042Z,23.50
2022-10-17T14:29:52.138Z,23.50
2022-10-17T14:32:20.858Z,23.60
2022-10-17T14:34:51.448Z,23.70
2022-10-17T14:37:38.255Z,23.90
2022-10-17T14:40:05.202Z,24.10
2022-10-17T14:42:31.746Z,24.20
2022-10-17T14:45:03.682Z,24.30
2022-10-17T14:47:43.100Z,24.30
2022-10-17T14:50:12.479Z,24.20
2022-10-17T14:52:39.848Z,24.10
2022-10-17T14:55:25.716Z,24.10
2022-10-17T14:57:52.296Z,24.00
2022-10-17T15:00:19.314Z,24.00
2022-10-17T15:02:46.179Z,23.90
2022-10-17T15:05:15.700Z,23.90
2022-10-17T15:07:42.387Z,23.80
2022-10-17T15:10:20.346Z,23.80
2022-10-17T15:12:52.163Z,23.80
2022-10-17T15:15:27.571Z,23.70
2022-10-17T15:17:54.135Z,23.70
2022-10-17T15:20:20.792Z,23.70
2022-10-17T15:22:48.028Z,23.70
2022-10-17T15:25:14.592Z,23.60
2022-10-17T15:27:42.430Z,23.60
2022-10-17T15:30:24.757Z,23.60
2022-10-17T15:32:51.525Z,23.60
2022-10-17T15:35:18.227Z,23.60
2022-10-17T15:37:46.746Z,23.60
2022-10-17T15:40:20.161Z,23.70
2022-10-17T15:42:46.850Z,23.90
2022-10-17T15:45:19.365Z,24.00
2022-10-17T15:47:58.671Z,24.10
2022-10-17T15:50:25.272Z,24.30
2022-10-17T15:53:00.746Z,24.30
2022-10-17T15:55:30.173Z,24.30
2022-10-17T15:57:57.445Z,24.30
2022-10-17T16:00:29.984Z,24.20
2022-10-17T16:03:07.730Z,24.10
2022-10-17T16:05:39.526Z,24.10
2022-10-17T16:08:06.132Z,24.00
2022-10-17T16:10:35.186Z,24.00
2022-10-17T16:13:09.046Z,24.00
2022-10-17T16:15:35.681Z,23.90
2022-10-17T16:18:05.874Z,23.80
2022-10-17T16:23:14.516Z,23.80
2022-10-17T16:25:43.672Z,23.80
2022-10-17T16:28:11.886Z,23.70
2022-10-17T16:30:42.403Z,23.70
2022-10-17T16:33:11.686Z,23.70
2022-10-17T16:35:44.429Z,23.70
2022-10-17T16:38:20.300Z,23.70
2022-10-17T16:40:46.846Z,23.70
2022-10-17T16:46:00.689Z,23.70
2022-10-17T16:48:29.689Z,23.70
2022-10-17T16:51:02.136Z,23.80
2022-10-17T16:53:31.217Z,24.00
2022-10-17T16:56:04.267Z,24.10
2022-10-17T16:58:32.310Z,24.30
2022-10-17T17:01:06.048Z,24.40
2022-10-17T17:03:37.517Z,24.30
2022-10-17T17:06:05.134Z,24.30
2022-10-17T17:08:33.052Z,24.20
2022-10-17T17:11:00.681Z,24.10
2022-10-17T17:13:27.825Z,24.10
2022-10-17T17:16:06.346Z,24.10
2022-10-17T17:18:33.115Z,24.00
2022-10-17T17:21:00.283Z,24.00
2022-10-17T17:23:26.922Z,23.90
2022-10-17T17:25:57.373Z,23.90
2022-10-17T17:28:24.073Z,23.90
2022-10-17T17:30:50.701Z,23.90
2022-10-17T17:33:17.281Z,23.90
2022-10-17T17:35:43.893Z,23.90
2022-10-17T17:38:10.517Z,23.90
2022-10-17T17:40:37.200Z,23.80
2022-10-17T17:43:05.113Z,23.90
2022-10-17T17:45:37.843Z,23.80
2022-10-17T17:48:04.467Z,23.80
2022-10-17T17:50:33.042Z,23.80
2022-10-17T17:52:59.631Z,23.90
2022-10-17T17:55:26.235Z,24.10
2022-10-17T17:57:52.866Z,24.20
2022-10-17T18:00:19.508Z,24.30
2022-10-17T18:02:46.223Z,24.30
2022-10-17T18:05:12.783Z,24.30
2022-10-17T18:07:41.538Z,24.20
2022-10-17T18:12:41.999Z,24.10
2022-10-17T18:15:09.794Z,24.00
2022-10-17T18:17:37.850Z,24.00
2022-10-17T18:20:05.286Z,24.00
2022-10-17T18:22:32.146Z,23.90
2022-10-17T18:24:59.510Z,23.90
2022-10-17T18:27:29.282Z,23.90
2022-10-17T18:29:56.062Z,23.80
2022-10-17T18:32:22.754Z,23.80
2022-10-17T18:34:49.440Z,23.80
2022-10-17T18:37:16.108Z,23.80
2022-10-17T18:39:42.807Z,23.70
2022-10-17T18:42:09.526Z,23.70
2022-10-17T18:44:39.302Z,23.70
2022-10-17T18:47:06.446Z,23.70
2022-10-17T18:49:33.287Z,23.80
2022-10-17T18:51:59.917Z,24.00
2022-10-17T18:54:29.412Z,24.10
2022-10-17T18:56:56.346Z,24.30
2022-10-17T18:59:23.052Z,24.40
2022-10-17T19:01:49.786Z,24.40
2022-10-17T19:04:17.488Z,24.40
2022-10-17T19:06:45.336Z,24.30
2022-10-17T19:09:12.431Z,24.20
2022-10-17T19:38:31.822Z,23.70
2022-10-17T19:43:29.960Z,23.70
2022-10-17T19:46:00.035Z,23.70
2022-10-17T19:48:26.666Z,23.70
2022-10-17T19:50:53.489Z,23.70
2022-10-17T19:53:22.645Z,23.70
2022-10-17T19:55:49.442Z,23.70
2022-10-17T19:58:16.289Z,23.70
2022-10-17T20:00:46.806Z,23.70
2022-10-17T20:03:13.675Z,23.70
2022-10-17T20:05:40.397Z,23.60
2022-10-17T20:08:07.553Z,23.70
2022-10-17T20:10:34.391Z,23.60
2022-10-17T20:13:01.343Z,23.60
2022-10-17T20:15:28.070Z,23.60
2022-10-17T20:17:54.786Z,23.70
2022-10-17T20:20:21.673Z,23.90
2022-10-17T20:22:48.239Z,24.10
2022-10-17T20:25:14.791Z,24.10
2022-10-17T20:27:41.366Z,24.30
2022-10-17T20:30:08.245Z,24.40
2022-10-17T20:32:39.551Z,24.30
2022-10-17T20:35:07.281Z,24.30
2022-10-17T20:37:37.339Z,24.20
2022-10-17T20:40:32.985Z,24.20
2022-10-17T20:42:53.322Z,24.10
2022-10-17T20:45:32.013Z,24.00
2022-10-17T20:48:06.659Z,24.00
2022-10-17T20:50:37.348Z,23.90
2022-10-17T20:53:31.381Z,23.90
2022-10-17T20:56:00.319Z,23.90
2022-10-17T20:58:26.880Z,23.80
2022-10-17T21:00:53.436Z,23.80
2022-10-17T21:03:20.004Z,23.80
2022-10-17T21:05:46.563Z,23.80
2022-10-17T21:08:13.121Z,23.80
2022-10-17T21:10:39.662Z,23.70
2022-10-17T21:13:06.222Z,23.70
2022-10-17T21:15:35.735Z,23.70
2022-10-17T21:18:02.281Z,23.70
2022-10-17T21:20:28.842Z,23.70
2022-10-17T21:22:55.396Z,23.70
2022-10-17T21:25:21.953Z,23.60
2022-10-17T21:27:48.586Z,23.70
2022-10-17T21:30:15.270Z,23.60
2022-10-17T21:32:56.818Z,23.60
2022-10-17T21:35:23.652Z,23.60
2022-10-17T21:37:51.009Z,23.60
2022-10-17T21:40:17.560Z,23.60
2022-10-17T21:42:44.106Z,23.50
2022-10-17T21:45:15.809Z,23.50
2022-10-17T21:48:11.291Z,23.50
2022-10-17T21:50:33.343Z,23.60
2022-10-17T21:52:59.991Z,23.70
2022-10-17T21:55:26.552Z,23.80
2022-10-17T21:57:53.117Z,24.00
2022-10-17T22:00:19.735Z,24.20
2022-10-17T22:02:46.311Z,24.30
2022-10-17T22:05:12.946Z,24.30
2022-10-17T22:07:39.514Z,24.30
2022-10-17T22:10:06.268Z,24.30
2022-10-17T22:12:33.192Z,24.20
2022-10-17T22:14:59.934Z,24.10
2022-10-17T22:17:26.548Z,24.10
2022-10-17T22:19:53.105Z,24.00
2022-10-17T22:22:19.812Z,24.00
2022-10-17T22:24:46.437Z,23.90
2022-10-17T22:27:13.103Z,23.90
2022-10-17T22:29:39.699Z,23.80
2022-10-17T22:32:06.280Z,23.80
2022-10-17T22:34:32.851Z,23.80
2022-10-17T22:36:59.486Z,23.70
2022-10-17T22:39:26.084Z,23.70
2022-10-17T22:41:52.647Z,23.70
2022-10-17T22:44:19.220Z,23.70
2022-10-17T22:46:45.811Z,23.70
2022-10-17T22:49:12.418Z,23.60
2022-10-17T22:51:39.001Z,23.60
2022-10-17T22:54:06.036Z,23.60
2022-10-17T22:56:32.661Z,23.60
2022-10-17T22:58:59.292Z,23.60
2022-10-17T23:01:26.123Z,23.60
2022-10-17T23:03:52.938Z,23.60
2022-10-17T23:06:19.692Z,23.60
2022-10-17T23:08:46.320Z,23.50
2022-10-17T23:11:13.062Z,23.50
2022-10-17T23:13:40.831Z,23.50
2022-10-17T23:16:07.704Z,23.50
2022-10-17T23:18:34.288Z,23.50
2022-10-17T23:21:00.873Z,23.50
2022-10-17T23:23:27.496Z,23.50
2022-10-17T23:25:54.156Z,23.50
2022-10-17T23:28:20.769Z,23.50
2022-10-17T23:30:47.450Z,23.60
2022-10-17T23:33:14.151Z,23.70
2022-10-17T23:35:40.802Z,23.90
2022-10-17T23:38:07.442Z,24.00
2022-10-17T23:40:35.345Z,24.10
2022-10-17T23:43:02.166Z,24.20
2022-10-17T23:45:29.883Z,24.20
2022-10-17T23:47:57.842Z,24.10
2022-10-17T23:50:24.424Z,24.10
2022-10-17T23:52:51.094Z,24.10
2022-10-17T23:55:17.725Z,24.00
2022-10-17T23:57:46.412Z,23.90
